Open Full Screen Window  High Contrast Mode
Wind Gusting 00 knots
06
July 20, 2018 4:53 AM EDT
Weather Information
Wind Direction
  170 °
Wind Speed
  06 kt (7 mph)
Wind Gust
  00 kt (0 mph)
Altimeter
29.92 in
Visibility
10 SM
Temperature
19° C
66° F
Dewpoint
15° C
59° F
Humidity
78%
Sky Condition
Broken @ 6,000 ft
VFR

METAR KPZQ 200853Z AUTO 17006KT 10SM BKN060 19/15 A2992 RMK AO2 T01930146

FAA Disclaimer: The data displayed is for advisory purposes only and is not to be used for flight planning or operations.